Latest Weather Observations for Port Augusta

IDS60801

Issued at 9:01 pm CDT Monday 27 March 2017 (issued every 30 minutes, with the page automatically refreshed every 10 minutes)

About weather observations | Map of weather stations | Latest weather observations for SA | Other Formats
Station Details ID: 018201 Name: PORT AUGUSTA AERO Lat: -32.51 Lon: 137.72 Height: 13.97 m
Data from the previous 72 hours. | See also: Recent months at Port Augusta
Date/Time
CDT
Temp
°C
App
Temp
°C
Dew
Point
°C
Rel
Hum
%
Delta-T
°C
Wind Press
QNH
hPa
Press
MSL
hPa
Rain since
9am
mm
Dir  Spd
km/h
Gust
km/h
Spd
kts
Gust
kts
27/09:00pm 21.0 17.1 10.8 52 5.6 S 22 30 12 16 1015.8 1015.7 0.0
27/08:30pm 21.5 16.3 10.3 49 6.1 SSE 28 35 15 19 1015.5 1015.4 0.0
27/08:00pm 21.8 16.5 9.7 46 6.5 SE 28 39 15 21 1015.2 1015.1 0.0
27/07:30pm 22.2 16.7 9.0 43 7.0 SE 28 35 15 19 1015.1 1015.0 0.0
27/07:00pm 23.2 17.5 11.3 47 6.7 SE 32 39 17 21 1014.8 1014.7 0.0
27/06:30pm 23.6 17.2 10.6 44 7.2 SE 35 44 19 24 1014.4 1014.3 0.0
27/06:00pm 24.2 17.4 10.8 43 7.5 SE 37 46 20 25 1014.2 1014.1 0.0
27/05:30pm 25.0 19.1 11.2 42 7.8 SE 33 43 18 23 1013.8 1013.7 0.0
27/05:00pm 23.8 17.9 13.6 52 5.9 SE 37 46 20 25 1013.8 1013.7 0.0
27/04:30pm 25.5 20.0 12.4 44 7.5 ESE 33 44 18 24 1013.9 1013.8 0.0
27/04:00pm 24.1 17.4 12.4 48 6.7 ESE 39 48 21 26 1013.7 1013.6 0.0
27/03:30pm 24.6 18.0 11.5 44 7.4 ESE 37 50 20 27 1013.8 1013.7 0.0
27/03:00pm 25.0 18.1 11.6 43 7.6 SE 39 50 21 27 1013.8 1013.7 0.0
27/02:30pm 25.4 18.8 11.2 41 8.0 ESE 37 54 20 29 1014.1 1014.0 0.0
27/02:01pm 26.5 20.1 10.6 37 8.9 ESE 35 67 19 36 1014.1 1014.0 0.0
27/02:00pm 25.5 20.0 11.7 42 7.9 ESE 32 48 17 26 1014.5 1014.4 0.0
27/01:57pm 25.7 20.8 12.5 44 7.6 ESE 30 48 16 26 1014.3 1014.2 0.0
27/01:30pm 25.3 19.7 13.2 47 7.1 SE 35 50 19 27 1014.4 1014.3 0.0
27/01:00pm 26.2 21.2 14.0 47 7.2 ESE 33 44 18 24 1014.6 1014.5 0.0
27/12:30pm 27.0 22.2 8.9 32 9.9 SSE 24 43 13 23 1015.2 1015.1 0.0
27/12:00pm 27.4 22.1 8.3 30 10.4 SSE 26 44 14 24 1015.3 1015.2 0.0
27/11:30am 27.5 21.6 8.9 31 10.2 SSE 30 41 16 22 1015.4 1015.3 0.0
27/11:00am 27.2 21.9 8.6 31 10.1 S 26 35 14 19 1015.3 1015.2 0.0
27/10:30am 27.1 22.1 9.5 33 9.7 S 26 37 14 20 1014.9 1014.8 0.0
27/10:00am 25.7 20.9 8.7 34 9.2 S 24 33 13 18 1014.5 1014.4 0.0
27/09:30am 25.2 19.6 8.7 35 8.9 S 28 41 15 22 1014.5 1014.4 0.0
27/09:00am 25.0 19.3 9.7 38 8.4 SSE 30 41 16 22 1014.2 1014.1 0.0
27/08:30am 23.8 20.4 12.4 48 6.5 SSE 22 37 12 20 1013.9 1013.8 0.0
27/08:00am 22.9 18.7 13.4 55 5.5 SSE 28 35 15 19 1013.4 1013.3 0.0
27/07:30am 23.1 18.7 14.1 57 5.3 SSE 30 41 16 22 1012.9 1012.8 0.0
27/07:00am 23.5 20.8 15.5 60 4.8 SE 24 32 13 17 1011.9 1011.8 0.0
27/06:30am 24.1 21.7 16.4 62 4.7 S 24 35 13 19 1011.4 1011.3 0.0
27/06:00am 24.2 20.9 17.0 64 4.5 S 30 37 16 20 1010.5 1010.4 0.0
27/05:30am 25.3 22.1 16.4 57 5.5 S 28 39 15 21 1010.2 1010.1 0.0
27/05:00am 27.1 22.8 15.5 49 7.1 S 32 43 17 23 1009.1 1009.0 0.0
27/04:53am 26.7 21.2 14.8 48 7.2 SSW 37 54 20 29 1008.9 1008.8 0.0
27/04:38am 27.6 21.2 13.2 41 8.5 SW 39 57 21 31 1007.2 1007.2 0.0
27/04:30am 28.2 21.3 11.7 36 9.5 SW 39 50 21 27 1006.9 1006.9 0.0
27/04:12am 29.3 23.4 10.4 31 10.7 SW 32 48 17 26 1006.6 1006.6 0.0
27/04:00am 29.0 25.6 7.6 26 11.6 WSW 15 26 8 14 1006.5 1006.5 0.0
27/03:30am 31.4 25.4 7.1 22 13.2 W 28 48 15 26 1006.0 1006.0 0.0
27/03:22am 29.2 24.4 7.2 25 11.8 W 22 43 12 23 1006.2 1006.2 0.0
27/03:00am 29.1 25.6 7.1 25 11.8 NW 15 19 8 10 1005.2 1005.2 0.0
27/02:30am 29.3 26.6 7.2 25 11.9 NW 11 15 6 8 1005.4 1005.4 0.0
27/02:00am 28.8 25.5 6.2 24 11.9 NW 13 19 7 10 1005.6 1005.6 0.0
27/01:30am 29.2 25.6 6.6 24 12.1 WNW 15 19 8 10 1005.8 1005.8 0.0
27/01:00am 29.6 26.0 6.9 24 12.2 NW 15 19 8 10 1005.7 1005.7 0.0
27/12:30am 28.8 25.8 6.2 24 12.0 WNW 11 17 6 9 1005.7 1005.7 0.0
27/12:00am 29.9 27.0 6.5 23 12.5 WNW 11 17 6 9 1005.9 1005.9 0.0
 
Date/Time
CDT
Temp
°C
App
Temp
°C
Dew
Point
°C
Rel
Hum
%
Delta-T
°C
Wind Press
QNH
hPa
Press
MSL
hPa
Rain since
9am
mm
Dir  Spd
km/h
Gust
km/h
Spd
kts
Gust
kts
26/11:30pm 30.5 27.3 7.0 23 12.7 NNE 13 17 7 9 1006.1 1006.1 0.0
26/11:00pm 30.7 27.8 6.6 22 12.9 NW 11 17 6 9 1006.4 1006.4 0.0
26/10:30pm 32.3 27.9 6.5 20 14.0 NNE 19 22 10 12 1006.4 1006.4 0.0
26/10:00pm 31.0 26.9 6.1 21 13.3 NNE 17 19 9 10 1006.4 1006.4 0.0
26/09:30pm 32.4 28.8 6.6 20 14.0 NNW 15 17 8 9 1006.4 1006.4 0.0
26/09:00pm 35.3 31.7 6.6 17 15.8 NW 15 24 8 13 1006.3 1006.3 0.0
26/08:30pm 32.7 29.1 6.8 20 14.1 NNE 15 17 8 9 1006.0 1006.0 0.0
26/08:00pm 35.3 31.7 6.6 17 15.8 N 15 17 8 9 1005.7 1005.7 0.0
26/07:30pm 37.7 33.3 4.6 13 17.9 NNW 17 20 9 11 1005.2 1005.2 0.0
26/07:00pm 39.8 34.8 3.8 11 19.4 NNW 19 26 10 14 1005.1 1005.1 0.0
26/06:30pm 41.0 35.6 4.7 11 20.0 NNW 22 32 12 17 1004.9 1004.9 0.0
26/06:00pm 41.7 35.8 3.9 10 20.7 NNW 24 35 13 19 1004.9 1004.9 0.0
26/05:30pm 42.0 36.1 4.1 10 20.8 NW 24 32 13 17 1004.9 1004.9 0.0
26/05:00pm 42.3 36.5 4.3 10 20.9 NNW 24 33 13 18 1005.1 1005.1 0.0
26/04:30pm 42.9 36.0 4.8 10 21.2 N 30 50 16 27 1005.2 1005.2 0.0
26/04:23pm 41.8 35.7 6.6 12 20.0 N 28 50 15 27 1005.3 1005.3 0.0
26/04:00pm 41.4 37.0 7.4 13 19.5 N 20 35 11 19 1005.5 1005.5 0.0
26/03:30pm 41.2 36.0 7.3 13 19.4 N 24 41 13 22 1006.1 1006.1 0.0
26/03:00pm 40.9 35.3 7.1 13 19.3 NNW 26 39 14 21 1006.5 1006.5 0.0
26/02:30pm 41.1 35.1 7.2 13 19.4 N 28 37 15 20 1007.0 1007.0 0.0
26/02:00pm 41.1 34.4 7.2 13 19.3 N 32 43 17 23 1007.6 1007.6 0.0
26/01:30pm 40.2 33.6 8.6 15 18.3 N 33 46 18 25 1008.2 1008.1 0.0
26/01:00pm 39.7 32.9 9.2 16 17.8 N 35 46 19 25 1008.8 1008.7 0.0
26/12:30pm 38.8 32.0 9.4 17 17.2 N 35 43 19 23 1009.2 1009.1 0.0
26/12:00pm 37.8 32.1 11.0 20 15.9 N 32 44 17 24 1009.6 1009.5 0.0
26/11:30am 36.2 30.9 11.1 22 14.9 N 30 37 16 20 1010.0 1009.9 0.0
26/11:00am 35.2 31.1 11.6 24 14.0 N 24 35 13 19 1010.3 1010.2 0.0
26/10:59am 35.1 31.6 12.1 25 13.7 N 22 35 12 19 1010.3 1010.2 0.0
26/10:30am 32.6 31.9 13.3 31 11.6 NNW 9 15 5 8 1010.9 1010.8 0.0
26/10:00am 31.3 30.4 13.6 34 10.7 NNE 11 17 6 9 1011.1 1011.0 0.0
26/09:30am 31.0 29.3 13.7 34 10.4 ENE 15 20 8 11 1011.3 1011.2 0.0
26/09:00am 28.3 26.9 15.6 46 7.8 ESE 17 22 9 12 1011.4 1011.3 0.0
26/08:30am 26.6 25.6 15.6 50 6.7 SE 15 20 8 11 1011.5 1011.4 0.0
26/08:00am 24.8 23.5 15.7 57 5.5 SE 17 22 9 12 1011.3 1011.2 0.0
26/07:30am 24.6 23.2 15.5 57 5.5 SE 17 24 9 13 1011.3 1011.2 0.0
26/07:00am 24.5 23.2 15.7 58 5.3 SE 17 20 9 11 1011.1 1011.0 0.0
26/06:30am 24.4 23.1 15.9 59 5.2 SE 17 22 9 12 1011.0 1010.9 0.0
26/06:00am 24.3 23.0 15.8 59 5.2 SE 17 22 9 12 1011.2 1011.1 0.0
26/05:30am 24.3 23.0 15.8 59 5.2 SE 17 24 9 13 1011.0 1010.9 0.0
26/05:00am 24.2 21.9 15.7 59 5.1 SSE 22 28 12 15 1010.8 1010.7 0.0
26/04:30am 24.2 22.3 15.7 59 5.1 SE 20 24 11 13 1011.0 1010.9 0.0
26/04:00am 24.8 23.2 14.9 54 5.9 SE 17 22 9 12 1011.0 1010.9 0.0
26/03:30am 25.3 24.1 15.0 53 6.2 SSE 15 20 8 11 1011.1 1011.0 0.0
26/03:00am 23.8 23.6 16.6 64 4.4 ESE 13 15 7 8 1011.3 1011.2 0.0
26/02:30am 24.1 24.0 16.1 61 4.9 ESE 11 19 6 10 1011.8 1011.7 0.0
26/02:00am 25.1 22.7 16.5 59 5.3 SSE 24 32 13 17 1012.1 1012.0 0.0
26/01:30am 25.6 22.7 16.2 56 5.8 SSE 26 33 14 18 1012.3 1012.2 0.0
26/01:00am 25.9 23.6 16.7 57 5.7 SSE 24 30 13 16 1012.6 1012.5 0.0
26/12:30am 26.2 24.9 16.7 56 5.9 SSE 19 24 10 13 1012.7 1012.6 0.0
26/12:00am 26.6 25.8 16.2 52 6.4 SE 15 20 8 11 1012.8 1012.7 0.0
 
Date/Time
CDT
Temp
°C
App
Temp
°C
Dew
Point
°C
Rel
Hum
%
Delta-T
°C
Wind Press
QNH
hPa
Press
MSL
hPa
Rain since
9am
mm
Dir  Spd
km/h
Gust
km/h
Spd
kts
Gust
kts
25/11:30pm 27.6 27.6 13.5 41 8.3 ESE 6 11 3 6 1012.9 1012.8 0.0
25/11:00pm 29.1 26.9 12.1 35 9.9 SE 15 22 8 12 1012.7 1012.6 0.0
25/10:30pm 29.0 26.0 12.4 36 9.7 SSE 20 26 11 14 1012.5 1012.4 0.0
25/10:00pm 28.4 24.8 13.1 39 9.0 SE 24 32 13 17 1012.3 1012.2 0.0
25/09:30pm 27.9 23.7 13.4 40 8.6 SE 28 37 15 20 1012.2 1012.1 0.0
25/09:00pm 27.7 23.3 14.0 43 8.2 SE 30 37 16 20 1012.0 1011.9 0.0
25/08:30pm 28.4 24.2 13.5 40 8.9 SSE 28 35 15 19 1011.9 1011.8 0.0
25/08:00pm 27.9 23.4 14.9 45 7.9 SE 32 39 17 21 1011.6 1011.5 0.0
25/07:30pm 28.0 23.7 15.3 46 7.8 SSE 32 46 17 25 1011.4 1011.3 0.0
25/07:00pm 27.4 24.2 17.3 54 6.3 SE 30 41 16 22 1011.2 1011.1 0.0
25/06:30pm 27.1 24.8 17.6 56 6.0 SE 26 37 14 20 1011.0 1010.9 0.0
25/06:00pm 28.8 24.8 16.7 48 7.6 SE 33 48 18 26 1011.0 1010.9 0.0
25/05:30pm 29.7 24.4 15.4 42 8.8 SE 37 46 20 25 1011.0 1010.9 0.0
25/05:00pm 30.7 23.7 11.1 30 11.3 SE 39 56 21 30 1010.8 1010.7 0.0
25/04:30pm 31.7 25.8 12.5 31 11.4 SE 35 43 19 23 1010.8 1010.7 0.0
25/04:00pm 32.0 26.9 13.7 33 11.1 SE 33 46 18 25 1010.9 1010.8 0.0
25/03:30pm 32.2 27.3 12.4 30 11.8 SE 30 39 16 21 1010.8 1010.7 0.0
25/03:00pm 32.5 27.5 11.1 27 12.5 SE 28 37 15 20 1011.0 1010.9 0.0
25/02:30pm 31.9 27.0 12.7 31 11.4 SE 30 39 16 21 1011.2 1011.1 0.0
25/02:00pm 30.7 25.4 12.6 33 10.7 SE 32 41 17 22 1011.6 1011.5 0.0
25/01:30pm 30.6 26.3 15.5 40 9.3 SE 32 41 17 22 1011.9 1011.8 0.0
25/01:00pm 29.4 25.7 16.9 47 7.9 SE 32 39 17 21 1012.2 1012.1 0.0
25/12:30pm 29.8 27.2 19.5 54 6.7 SE 32 41 17 22 1012.4 1012.3 0.0
25/12:00pm 28.0 25.6 19.2 58 5.7 SE 30 41 16 22 1012.7 1012.6 0.0
25/11:30am 29.4 27.2 18.8 53 6.8 SSE 28 35 15 19 1013.0 1012.9 0.0
25/11:00am 28.4 26.4 18.2 54 6.5 SE 26 32 14 17 1012.9 1012.8 0.0
25/10:30am 29.4 28.9 16.9 47 7.9 SE 15 20 8 11 1012.9 1012.8 0.0
25/10:00am 28.0 26.5 14.3 43 8.2 SE 15 19 8 10 1012.8 1012.7 0.0
25/09:30am 26.1 26.1 17.2 58 5.6 SE 13 17 7 9 1012.6 1012.5 0.0
25/09:00am 24.4 24.3 17.9 67 4.1 SE 15 19 8 10 1012.4 1012.3 0.0
25/08:30am 23.5 24.4 19.2 77 2.7 SE 13 17 7 9 1012.2 1012.1 0.0
25/08:00am 22.3 23.3 19.5 84 1.8 SE 13 17 7 9 1011.9 1011.8 0.0
25/07:30am 22.1 22.2 19.1 83 1.9 SE 17 22 9 12 1011.8 1011.7 0.0
25/07:00am 22.3 22.1 19.3 83 1.9 SSE 19 24 10 13 1011.6 1011.5 0.0
25/06:30am 22.4 21.7 18.6 79 2.4 SE 20 26 11 14 1011.5 1011.4 0.0
25/06:00am 22.7 21.6 17.2 71 3.4 SSE 19 24 10 13 1011.3 1011.2 0.0
25/05:30am 22.4 21.2 17.1 72 3.3 SSE 19 26 10 14 1011.2 1011.1 0.0
25/05:00am 22.9 22.5 18.0 74 3.1 SE 17 22 9 12 1011.0 1010.9 0.0
25/04:30am 23.1 21.9 16.2 65 4.2 SE 17 20 9 11 1011.0 1010.9 0.0
25/04:00am 23.2 23.6 17.2 69 3.7 SE 11 15 6 8 1010.9 1010.8 0.0
25/03:30am 22.7 23.7 16.9 70 3.6 SE 7 11 4 6 1010.8 1010.7 0.0
25/03:00am 22.6 22.9 15.9 66 4.0 E 9 13 5 7 1010.9 1010.8 0.0
25/02:30am 23.3 22.5 14.0 56 5.5 E 11 13 6 7 1011.1 1011.0 0.0
25/02:00am 25.1 25.1 12.3 45 7.3 SE 4 7 2 4 1011.3 1011.2 0.0
25/01:30am 26.0 25.2 11.7 41 8.2 S 7 13 4 7 1011.5 1011.4 0.0
25/01:00am 26.5 22.7 12.5 41 8.1 SSE 24 33 13 18 1011.3 1011.2 0.0
25/12:30am 26.5 22.1 12.9 43 7.9 SE 28 37 15 20 1011.4 1011.3 0.0
25/12:00am 26.4 21.4 13.5 45 7.6 SSE 32 39 17 21 1011.5 1011.4 0.0
 
Date/Time
CDT
Temp
°C
App
Temp
°C
Dew
Point
°C
Rel
Hum
%
Delta-T
°C
Wind Press
QNH
hPa
Press
MSL
hPa
Rain since
9am
mm
Dir  Spd
km/h
Gust
km/h
Spd
kts
Gust
kts
24/11:30pm 25.6 22.3 15.0 52 6.4 SSE 26 35 14 19 1012.0 1011.9 0.0
24/11:00pm 25.7 22.3 14.8 51 6.5 SSE 26 33 14 18 1012.3 1012.2 0.0
24/10:30pm 26.2 22.2 15.3 51 6.6 SE 30 39 16 21 1012.2 1012.1 0.0
24/10:00pm 27.6 23.3 13.2 41 8.5 SSE 28 35 15 19 1012.3 1012.2 0.0
24/09:30pm 29.4 25.7 11.5 33 10.3 SSE 22 30 12 16 1012.0 1011.9 0.0

Other Formats:

Comma delimited format used in spreadsheet applications
http://www.bom.gov.au/fwo/IDS60801/IDS60801.95666.axf

JavaScript Object Notation format (JSON) in row-major order
http://www.bom.gov.au/fwo/IDS60801/IDS60801.95666.json